Time;durP1;ratioP1;P1;durP2;ratioP2;P2;SDS_P1;SDS_P2;PMS_P1;PMS_P2;Temp;Humidity;BMP_temperature;BMP_pressure;BME280_temperature;BME280_humidity;BME280_pressure;Samples;Min_cycle;Max_cycle;Signal;HPM_P1;HPM_P2
2021/05/29 00:00:09;;;;;;;;;;;;;;;17.12;56.28;101593.78;5111153;28;19985;-72
2021/05/29 00:02:36;;;;;;;;;;;;;;;17.14;56.38;101591.47;5111382;28;19920;-71
2021/05/29 00:05:05;;;;;;;;;;;;;;;17.09;56.47;101599.19;5091953;28;20407;-72
2021/05/29 00:07:32;;;;;;;;;;;;;;;16.91;57.13;101597.69;5106398;28;19919;-73
2021/05/29 00:09:59;;;;;;;;;;;;;;;16.74;57.80;101585.47;5110896;28;19931;-71
2021/05/29 00:12:27;;;;;;;;;;;;;;;17.09;56.81;101585.28;5092863;28;20366;-72
2021/05/29 00:14:54;;;;;;;;;;;;;;;17.26;56.34;101588.78;5110608;28;19935;-73
2021/05/29 00:17:21;;;;;;;;;;;;;;;16.98;56.99;101584.84;5111371;28;19921;-71
2021/05/29 00:19:48;;;;;;;;;;;;;;;16.94;57.17;101585.88;5110541;28;19919;-72
2021/05/29 00:22:16;;;;;;;;;;;;;;;16.94;57.09;101592.25;5109309;28;20282;-73
2021/05/29 00:24:43;;;;;;;;;;;;;;;16.97;57.16;101590.75;5111780;28;19931;-71
2021/05/29 00:27:10;;;;;;;;;;;;;;;17.02;57.12;101588.59;5112121;28;19927;-73
2021/05/29 00:29:37;;;;;;;;;;;;;;;17.22;56.68;101593.41;5077065;28;19926;-72
2021/05/29 00:32:04;;;;;;;;;;;;;;;16.88;57.81;101596.38;5093765;28;19924;-72
2021/05/29 00:34:32;;;;;;;;;;;;;;;16.83;58.14;101591.81;5087093;27;19919;-70
2021/05/29 00:36:59;;;;;;;;;;;;;;;16.96;57.83;101589.13;5110656;27;20381;-70
2021/05/29 00:39:26;;;;;;;;;;;;;;;16.86;58.37;101599.47;5091199;28;19920;-72
2021/05/29 00:41:53;;;;;;;;;;;;;;;16.91;58.25;101590.16;5091714;28;19931;-71
2021/05/29 00:44:20;;;;;;;;;;;;;;;16.88;58.54;101599.16;5090877;28;19932;-71
2021/05/29 00:46:48;;;;;;;;;;;;;;;16.73;59.05;101594.16;5091845;28;19920;-71
2021/05/29 00:49:15;;;;;;;;;;;;;;;16.84;58.68;101589.84;5091590;28;19924;-71
2021/05/29 00:51:42;;;;;;;;;;;;;;;17.04;58.09;101591.88;5091087;28;19920;-70
2021/05/29 00:54:10;;;;;;;;;;;;;;;16.98;58.18;101584.06;5073354;28;19923;-72
2021/05/29 00:56:37;;;;;;;;;;;;;;;16.86;58.67;101577.22;5090110;28;19927;-73
2021/05/29 00:59:05;;;;;;;;;;;;;;;16.88;58.58;101574.94;5091071;28;19920;-71
2021/05/29 01:01:32;;;;;;;;;;;;;;;16.78;58.94;101578.09;5106983;28;19951;-72
2021/05/29 01:03:59;;;;;;;;;;;;;;;16.86;58.81;101571.66;5091301;28;20367;-71
2021/05/29 01:06:29;;;;;;;;;;;;;;;16.71;59.30;101568.63;5073914;28;19920;-72
2021/05/29 01:08:56;;;;;;;;;;;;;;;16.88;58.76;101581.66;5091202;28;19919;-72
2021/05/29 01:11:23;;;;;;;;;;;;;;;17.02;58.31;101576.63;5091438;28;19920;-71
2021/05/29 01:13:58;;;;;;;;;;;;;;;16.88;58.59;101577.72;5090525;28;19919;-71
2021/05/29 01:16:46;;;;;;;;;;;;;;;16.80;58.99;101575.78;5090984;28;19931;-72
2021/05/29 01:19:13;;;;;;;;;;;;;;;16.97;58.60;101568.50;5090972;28;20303;-73
2021/05/29 01:21:40;;;;;;;;;;;;;;;16.73;59.43;101577.47;5089732;28;19927;-72
2021/05/29 01:24:07;;;;;;;;;;;;;;;16.66;59.85;101568.81;5090336;28;20067;-73
2021/05/29 01:26:34;;;;;;;;;;;;;;;16.56;59.94;101583.88;5091328;28;19931;-71
2021/05/29 01:29:02;;;;;;;;;;;;;;;16.41;60.73;101584.41;5073260;28;19920;-72
2021/05/29 01:31:31;;;;;;;;;;;;;;;16.86;59.25;101582.78;5091072;28;20363;-71
2021/05/29 01:33:59;;;;;;;;;;;;;;;16.55;59.86;101584.22;5091207;28;19927;-72
2021/05/29 01:36:27;;;;;;;;;;;;;;;16.29;61.01;101592.63;5106810;28;19920;-73
2021/05/29 01:38:54;;;;;;;;;;;;;;;16.32;60.94;101599.50;5089553;28;19920;-70
2021/05/29 01:41:22;;;;;;;;;;;;;;;16.07;62.00;101600.34;5091023;28;19920;-71
2021/05/29 01:43:50;;;;;;;;;;;;;;;15.97;62.22;101603.47;5072949;28;20359;-70
2021/05/29 01:46:18;;;;;;;;;;;;;;;16.12;62.08;101611.28;5091067;28;20367;-72
2021/05/29 01:48:47;;;;;;;;;;;;;;;15.98;62.36;101605.06;5073446;28;19931;-71
2021/05/29 01:51:15;;;;;;;;;;;;;;;16.06;62.24;101602.28;5090432;28;19924;-71
2021/05/29 01:53:42;;;;;;;;;;;;;;;16.14;61.96;101601.47;5091065;28;19927;-70
2021/05/29 01:56:10;;;;;;;;;;;;;;;16.32;61.41;101600.28;5092953;28;19927;-70
2021/05/29 01:58:37;;;;;;;;;;;;;;;16.26;61.70;101598.84;5109907;28;19920;-70
2021/05/29 02:01:05;;;;;;;;;;;;;;;16.14;62.12;101607.03;5076590;28;19939;-70
2021/05/29 02:03:33;;;;;;;;;;;;;;;16.12;61.86;101601.00;5094524;28;19920;-68
2021/05/29 02:06:00;;;;;;;;;;;;;;;15.97;62.84;101604.25;5110091;28;19928;-69
2021/05/29 02:08:27;;;;;;;;;;;;;;;16.13;62.24;101610.13;5093708;28;19927;-72
2021/05/29 02:11:00;;;;;;;;;;;;;;;16.20;62.09;101602.94;5094621;28;19920;-71
2021/05/29 02:13:28;;;;;;;;;;;;;;;16.22;61.96;101600.63;5094526;28;19931;-72
2021/05/29 02:15:56;;;;;;;;;;;;;;;16.16;61.94;101601.94;5090891;28;20078;-72
2021/05/29 02:18:23;;;;;;;;;;;;;;;15.87;62.80;101598.22;5093981;28;19935;-71
2021/05/29 02:20:54;;;;;;;;;;;;;;;15.81;63.53;101597.59;5094328;28;19920;-71
2021/05/29 02:23:25;;;;;;;;;;;;;;;15.94;63.07;101602.13;5110355;28;19927;-72
2021/05/29 02:25:55;;;;;;;;;;;;;;;15.82;63.23;101604.75;5075722;28;20294;-70
2021/05/29 02:28:22;;;;;;;;;;;;;;;15.84;63.58;101599.69;5092359;28;19924;-72
2021/05/29 02:30:50;;;;;;;;;;;;;;;15.74;63.76;101608.38;5094416;28;20390;-71
2021/05/29 02:33:17;;;;;;;;;;;;;;;15.59;64.59;101608.81;5109865;28;19920;-70
2021/05/29 02:35:44;;;;;;;;;;;;;;;15.79;63.78;101610.97;5093623;28;19942;-70
2021/05/29 02:38:11;;;;;;;;;;;;;;;15.99;63.33;101617.84;5075813;28;19927;-70
2021/05/29 02:40:39;;;;;;;;;;;;;;;16.08;62.96;101613.91;5093213;28;19927;-70
2021/05/29 02:43:06;;;;;;;;;;;;;;;16.16;62.47;101613.06;5092543;28;19931;-70
2021/05/29 02:45:34;;;;;;;;;;;;;;;15.83;63.34;101617.50;5093986;28;19931;-71
2021/05/29 02:48:01;;;;;;;;;;;;;;;15.50;64.55;101613.53;5093990;28;20492;-70
2021/05/29 02:50:28;;;;;;;;;;;;;;;15.65;64.24;101616.69;5075499;28;20395;-69
2021/05/29 02:52:56;;;;;;;;;;;;;;;15.69;63.94;101614.88;5108824;28;19920;-68
2021/05/29 02:55:23;;;;;;;;;;;;;;;15.50;64.85;101616.31;5075218;28;20463;-71
2021/05/29 02:57:54;;;;;;;;;;;;;;;15.54;64.69;101614.53;5075257;28;20379;-71
2021/05/29 03:00:22;;;;;;;;;;;;;;;15.55;64.61;101605.88;5075103;28;19920;-70
2021/05/29 03:02:49;;;;;;;;;;;;;;;15.42;65.12;101612.41;5093029;28;19919;-74
2021/05/29 03:05:16;;;;;;;;;;;;;;;15.28;65.90;101610.88;5058267;28;19924;-70
2021/05/29 03:07:46;;;;;;;;;;;;;;;15.15;66.21;101611.84;5107357;28;20387;-71
2021/05/29 03:10:14;;;;;;;;;;;;;;;15.30;66.15;101619.69;5092798;28;19924;-70
2021/05/29 03:12:41;;;;;;;;;;;;;;;15.51;65.17;101610.47;5092840;28;19920;-70
2021/05/29 03:15:10;;;;;;;;;;;;;;;15.65;64.86;101615.88;5092895;28;19927;-71
2021/05/29 03:17:37;;;;;;;;;;;;;;;15.15;66.26;101618.19;5108999;28;19927;-71
2021/05/29 03:20:05;;;;;;;;;;;;;;;15.01;67.40;101609.16;5093289;28;20355;-68
2021/05/29 03:22:33;;;;;;;;;;;;;;;15.03;67.18;101611.63;5092595;28;19920;-71
2021/05/29 03:25:00;;;;;;;;;;;;;;;15.06;67.09;101617.34;5074810;28;19920;-68
2021/05/29 03:27:27;;;;;;;;;;;;;;;15.32;66.59;101622.97;5108224;28;20318;-70
2021/05/29 03:29:54;;;;;;;;;;;;;;;15.25;66.11;101626.22;5075382;28;19920;-71
2021/05/29 03:32:22;;;;;;;;;;;;;;;14.94;67.22;101619.91;5092107;28;19927;-71
2021/05/29 03:34:49;;;;;;;;;;;;;;;15.09;67.02;101625.03;5093339;28;19920;-72
2021/05/29 03:37:16;;;;;;;;;;;;;;;15.30;66.38;101623.28;5092721;28;19924;-70
2021/05/29 03:39:43;;;;;;;;;;;;;;;15.23;66.53;101620.19;5093042;28;19924;-68
2021/05/29 03:42:10;;;;;;;;;;;;;;;15.50;65.58;101621.88;5092678;28;19927;-68
2021/05/29 03:44:38;;;;;;;;;;;;;;;15.50;65.62;101619.09;5092726;28;20290;-69
2021/05/29 03:47:05;;;;;;;;;;;;;;;15.65;65.02;101627.81;5092787;28;20295;-72
2021/05/29 03:49:32;;;;;;;;;;;;;;;15.66;64.68;101620.28;5108538;28;20264;-69
2021/05/29 03:52:00;;;;;;;;;;;;;;;15.53;65.32;101626.81;5092383;28;20359;-69
2021/05/29 03:54:27;;;;;;;;;;;;;;;15.74;64.39;101628.59;5091624;28;19920;-70
2021/05/29 03:56:54;;;;;;;;;;;;;;;15.54;65.29;101629.25;5092436;28;19920;-69
2021/05/29 03:59:22;;;;;;;;;;;;;;;15.61;64.99;101631.53;5092206;28;19920;-68
2021/05/29 04:01:49;;;;;;;;;;;;;;;15.64;64.59;101636.44;5092703;28;19920;-72
2021/05/29 04:04:18;;;;;;;;;;;;;;;15.52;65.26;101642.63;5092822;28;19928;-72
2021/05/29 04:06:45;;;;;;;;;;;;;;;15.42;65.57;101645.72;5090122;28;19943;-70
2021/05/29 04:09:13;;;;;;;;;;;;;;;15.45;65.39;101649.81;5074089;28;19920;-72
2021/05/29 04:11:40;;;;;;;;;;;;;;;15.43;65.94;101647.34;5092344;28;19927;-71
2021/05/29 04:14:07;;;;;;;;;;;;;;;15.53;65.14;101649.03;5092055;28;19920;-69
2021/05/29 04:16:34;;;;;;;;;;;;;;;15.34;65.90;101654.00;5091633;28;20363;-71
2021/05/29 04:19:02;;;;;;;;;;;;;;;15.15;66.66;101647.91;5090131;28;20279;-70
2021/05/29 04:21:29;;;;;;;;;;;;;;;15.04;67.14;101646.56;5091978;28;19928;-70
2021/05/29 04:23:56;;;;;;;;;;;;;;;14.96;67.27;101642.59;5091871;28;20391;-72
2021/05/29 04:26:24;;;;;;;;;;;;;;;15.02;67.27;101641.31;5091164;28;20410;-69
2021/05/29 04:28:51;;;;;;;;;;;;;;;15.08;67.11;101648.34;5092046;28;20303;-70
2021/05/29 04:31:18;;;;;;;;;;;;;;;15.00;67.48;101651.94;5073246;28;19947;-72
2021/05/29 04:33:46;;;;;;;;;;;;;;;14.65;69.12;101650.13;5074035;28;20379;-72
2021/05/29 04:36:13;;;;;;;;;;;;;;;15.02;68.25;101657.97;5091483;28;19931;-73
2021/05/29 04:38:40;;;;;;;;;;;;;;;15.28;66.95;101656.09;5107638;28;19927;-71
2021/05/29 04:41:07;;;;;;;;;;;;;;;15.27;67.04;101653.66;5092161;28;19920;-73
2021/05/29 04:43:34;;;;;;;;;;;;;;;15.38;66.72;101657.75;5107280;28;19920;-73
2021/05/29 04:46:02;;;;;;;;;;;;;;;15.55;65.74;101661.41;5092557;28;19973;-73
2021/05/29 04:48:29;;;;;;;;;;;;;;;15.52;65.64;101667.63;5091215;28;19920;-75
2021/05/29 04:51:13;;;;;;;;;;;;;;;15.33;66.16;101664.28;5091849;28;19920;-73
2021/05/29 04:53:41;;;;;;;;;;;;;;;15.14;67.01;101660.97;5091330;28;20389;-71
2021/05/29 04:56:08;;;;;;;;;;;;;;;15.08;67.05;101667.78;5072937;28;19926;-71
2021/05/29 04:58:37;;;;;;;;;;;;;;;15.15;66.93;101672.88;5090743;28;19920;-72
2021/05/29 05:01:05;;;;;;;;;;;;;;;15.06;67.24;101672.03;5091481;28;20291;-73
2021/05/29 05:03:33;;;;;;;;;;;;;;;15.27;66.75;101670.31;5090064;28;19924;-71
2021/05/29 05:06:00;;;;;;;;;;;;;;;15.66;65.51;101670.25;5107081;28;19927;-70
2021/05/29 05:08:27;;;;;;;;;;;;;;;15.79;64.97;101672.09;5072944;28;20331;-71
2021/05/29 05:10:57;;;;;;;;;;;;;;;15.95;64.39;101675.22;5073422;28;19927;-70
2021/05/29 05:13:26;;;;;;;;;;;;;;;15.75;64.84;101680.25;5091528;28;19920;-72
2021/05/29 05:15:54;;;;;;;;;;;;;;;15.58;65.88;101680.22;5090710;28;19920;-72
2021/05/29 05:18:22;;;;;;;;;;;;;;;15.60;66.24;101680.69;5089500;28;19931;-70
2021/05/29 05:20:50;;;;;;;;;;;;;;;15.73;66.14;101681.72;5091453;28;19924;-70
2021/05/29 05:23:21;;;;;;;;;;;;;;;15.79;66.21;101688.75;5074044;28;19920;-70
2021/05/29 05:25:51;;;;;;;;;;;;;;;15.67;66.59;101681.03;5106353;28;19927;-70
2021/05/29 05:28:25;;;;;;;;;;;;;;;15.79;66.38;101685.97;5072345;28;20372;-69
2021/05/29 05:30:56;;;;;;;;;;;;;;;15.99;66.01;101685.34;5108143;28;20419;-69
2021/05/29 05:33:24;;;;;;;;;;;;;;;16.13;65.35;101691.56;5110891;28;19920;-71
2021/05/29 05:35:53;;;;;;;;;;;;;;;16.21;65.12;101687.97;5094988;28;19927;-69
2021/05/29 05:38:22;;;;;;;;;;;;;;;16.12;65.33;101694.66;5095257;28;20413;-71
2021/05/29 05:40:52;;;;;;;;;;;;;;;16.31;64.66;101690.41;5110603;28;19920;-71
2021/05/29 05:43:19;;;;;;;;;;;;;;;16.31;64.34;101698.75;5095208;28;19995;-70
2021/05/29 05:45:46;;;;;;;;;;;;;;;16.15;64.86;101694.00;5095041;28;19927;-72
2021/05/29 05:48:13;;;;;;;;;;;;;;;16.01;65.08;101699.72;5094619;28;19935;-70
2021/05/29 05:50:55;;;;;;;;;;;;;;;16.12;65.21;101708.56;5095125;28;19920;-69
2021/05/29 05:53:22;;;;;;;;;;;;;;;15.96;65.83;101704.63;5091899;28;19931;-70
2021/05/29 05:55:51;;;;;;;;;;;;;;;16.16;65.13;101715.91;5076873;28;19924;-69
2021/05/29 05:58:18;;;;;;;;;;;;;;;16.06;65.07;101719.03;5094516;28;19995;-70
2021/05/29 06:00:45;;;;;;;;;;;;;;;16.10;65.25;101713.63;5094477;28;19927;-68
2021/05/29 06:03:13;;;;;;;;;;;;;;;16.26;65.00;101720.34;5076772;28;19927;-71
2021/05/29 06:05:40;;;;;;;;;;;;;;;16.31;64.26;101726.56;5094340;28;19920;-71
2021/05/29 06:08:07;;;;;;;;;;;;;;;15.86;66.03;101729.94;5094719;28;19939;-70
2021/05/29 06:10:34;;;;;;;;;;;;;;;16.02;65.75;101736.69;5094578;28;19924;-69
2021/05/29 06:13:02;;;;;;;;;;;;;;;16.20;65.25;101743.88;5076718;28;19931;-70
2021/05/29 06:21:01;;;;;;;;;;;;;;;16.36;64.81;101745.03;5075499;28;19919;-70
2021/05/29 06:23:28;;;;;;;;;;;;;;;16.38;64.48;101751.09;5094245;28;20279;-69
2021/05/29 06:25:56;;;;;;;;;;;;;;;16.66;64.37;101750.47;5058745;28;19927;-69
2021/05/29 06:28:23;;;;;;;;;;;;;;;16.69;63.43;101747.00;5094243;28;19919;-69
2021/05/29 06:30:51;;;;;;;;;;;;;;;16.62;63.22;101745.88;5093774;28;19920;-70
2021/05/29 06:33:18;;;;;;;;;;;;;;;16.48;63.67;101757.16;5094514;28;20291;-71
2021/05/29 06:35:45;;;;;;;;;;;;;;;16.49;64.12;101758.78;5093941;28;19920;-73
2021/05/29 06:38:13;;;;;;;;;;;;;;;16.64;63.97;101755.53;5075541;28;20307;-70
2021/05/29 06:40:40;;;;;;;;;;;;;;;16.90;63.44;101755.47;5093258;28;19954;-74
2021/05/29 06:43:07;;;;;;;;;;;;;;;16.90;63.10;101758.25;5091643;28;20367;-72
2021/05/29 06:45:34;;;;;;;;;;;;;;;16.85;62.49;101761.22;5093753;28;19920;-73
2021/05/29 06:48:01;;;;;;;;;;;;;;;17.10;62.03;101757.56;5093979;28;20004;-72
2021/05/29 06:50:28;;;;;;;;;;;;;;;17.20;61.07;101753.59;5108820;28;19920;-71
2021/05/29 06:52:58;;;;;;;;;;;;;;;16.83;62.30;101747.66;5093118;28;19924;-73
2021/05/29 07:00:57;;;;;;;;;;;;;;;17.51;60.19;101756.94;5093843;28;19920;-73
2021/05/29 07:03:24;;;;;;;;;;;;;;;17.69;59.67;101750.97;5093830;28;19920;-72
2021/05/29 07:05:51;;;;;;;;;;;;;;;17.89;59.00;101752.97;5093676;28;19927;-70
2021/05/29 07:08:19;;;;;;;;;;;;;;;17.79;58.29;101744.19;5093875;28;19920;-73
2021/05/29 07:10:46;;;;;;;;;;;;;;;17.89;58.20;101754.94;5092854;28;20378;-69
2021/05/29 07:13:13;;;;;;;;;;;;;;;18.10;58.11;101758.56;5092604;28;19928;-70
2021/05/29 07:15:41;;;;;;;;;;;;;;;18.17;57.53;101758.03;5093180;28;19931;-71
2021/05/29 07:18:11;;;;;;;;;;;;;;;18.19;57.80;101755.72;5092857;28;19927;-71
2021/05/29 07:20:38;;;;;;;;;;;;;;;18.25;57.22;101759.94;5092657;28;19926;-70
2021/05/29 07:23:06;;;;;;;;;;;;;;;18.30;56.83;101763.34;5108941;28;19920;-70
2021/05/29 07:25:33;;;;;;;;;;;;;;;18.30;56.22;101766.16;5092986;28;19920;-72
2021/05/29 07:28:00;;;;;;;;;;;;;;;18.41;55.66;101758.22;5093116;28;19927;-72
2021/05/29 07:30:28;;;;;;;;;;;;;;;18.53;55.61;101761.06;5092747;28;19931;-74
2021/05/29 07:32:55;;;;;;;;;;;;;;;18.67;55.38;101765.19;5075352;28;19927;-70
2021/05/29 07:35:22;;;;;;;;;;;;;;;18.36;51.12;101761.97;5092214;28;19920;-70
2021/05/29 07:37:49;;;;;;;;;;;;;;;18.54;49.53;101766.31;5093100;28;19927;-70
2021/05/29 07:40:16;;;;;;;;;;;;;;;18.59;47.97;101763.28;5092288;28;19920;-70
2021/05/29 07:42:44;;;;;;;;;;;;;;;18.46;44.84;101769.16;5092036;28;19953;-71
2021/05/29 07:45:13;;;;;;;;;;;;;;;18.54;44.54;101768.25;5092070;28;19923;-71
2021/05/29 07:47:44;;;;;;;;;;;;;;;18.55;44.54;101767.91;5072354;28;19931;-70
2021/05/29 07:50:11;;;;;;;;;;;;;;;18.91;43.37;101767.25;5091399;28;19923;-73
2021/05/29 07:52:39;;;;;;;;;;;;;;;18.84;43.28;101769.78;5105550;28;19919;-68
2021/05/29 07:55:07;;;;;;;;;;;;;;;18.96;43.26;101769.84;5111613;28;19920;-71
2021/05/29 07:57:34;;;;;;;;;;;;;;;18.93;42.86;101773.31;5110884;28;19927;-69
2021/05/29 08:00:04;;;;;;;;;;;;;;;18.93;42.99;101768.53;5108636;28;19920;-70
2021/05/29 08:02:34;;;;;;;;;;;;;;;18.93;42.58;101770.53;5111466;28;19926;-72
2021/05/29 08:05:01;;;;;;;;;;;;;;;18.75;42.96;101771.84;5111656;28;19919;-70
2021/05/29 08:07:29;;;;;;;;;;;;;;;19.04;42.94;101772.53;5075134;28;19920;-71
2021/05/29 08:09:56;;;;;;;;;;;;;;;19.16;42.23;101774.53;5094347;28;20371;-70
2021/05/29 08:12:24;;;;;;;;;;;;;;;19.24;42.29;101776.44;5094794;28;19920;-76
2021/05/29 08:14:51;;;;;;;;;;;;;;;19.13;42.71;101778.03;5107913;27;19938;-70
2021/05/29 08:17:18;;;;;;;;;;;;;;;19.75;41.09;101763.81;5104597;28;20397;-66
2021/05/29 08:19:45;;;;;;;;;;;;;;;19.86;42.03;101770.56;5079357;28;19927;-67
2021/05/29 08:22:12;;;;;;;;;;;;;;;20.22;41.25;101776.16;5100210;28;19920;-67
2021/05/29 08:24:39;;;;;;;;;;;;;;;20.49;40.54;101780.16;5095809;28;20311;-66
2021/05/29 08:27:07;;;;;;;;;;;;;;;20.54;40.79;101782.72;5090313;28;19919;-70
2021/05/29 08:29:34;;;;;;;;;;;;;;;20.47;40.45;101785.31;5098885;28;19924;-67
2021/05/29 08:32:02;;;;;;;;;;;;;;;20.68;39.09;101783.13;5107159;28;20387;-69
2021/05/29 08:34:29;;;;;;;;;;;;;;;20.67;38.75;101778.69;5100953;28;19924;-67
2021/05/29 08:36:56;;;;;;;;;;;;;;;20.06;40.00;101775.22;5107709;28;20388;-67
2021/05/29 08:39:23;;;;;;;;;;;;;;;20.10;40.06;101779.75;5108566;27;19919;-69
2021/05/29 08:41:51;;;;;;;;;;;;;;;19.25;40.76;101782.84;5087799;28;19924;-69
2021/05/29 08:44:18;;;;;;;;;;;;;;;19.33;40.32;101774.41;5106071;28;20416;-70
2021/05/29 08:46:45;;;;;;;;;;;;;;;19.57;40.47;101780.00;5105306;28;19930;-70
2021/05/29 08:49:13;;;;;;;;;;;;;;;19.62;39.39;101781.75;5115095;27;19919;-69
2021/05/29 08:51:40;;;;;;;;;;;;;;;19.59;38.98;101783.28;5117147;27;19919;-68
2021/05/29 08:54:07;;;;;;;;;;;;;;;19.55;39.43;101787.09;5090885;28;19920;-68
2021/05/29 08:56:34;;;;;;;;;;;;;;;19.61;39.05;101789.34;5108186;28;19920;-69
2021/05/29 08:59:02;;;;;;;;;;;;;;;20.11;38.10;101784.19;5106027;28;19934;-69
2021/05/29 09:01:29;;;;;;;;;;;;;;;20.14;39.03;101783.47;5069192;28;19929;-67
2021/05/29 09:04:00;;;;;;;;;;;;;;;20.40;39.17;101785.88;5097271;28;20409;-68
2021/05/29 09:06:31;;;;;;;;;;;;;;;20.08;38.56;101784.88;5113172;27;19919;-67
2021/05/29 09:08:59;;;;;;;;;;;;;;;19.96;39.01;101784.88;5087302;28;19919;-67
2021/05/29 09:14:27;;;;;;;;;;;;;;;20.11;38.00;101786.16;5110328;28;20063;-69
2021/05/29 09:17:09;;;;;;;;;;;;;;;19.75;37.93;101786.97;5090321;28;20310;-70
2021/05/29 09:19:48;;;;;;;;;;;;;;;19.76;38.33;101791.44;5102231;28;19930;-70
2021/05/29 09:22:16;;;;;;;;;;;;;;;20.09;38.54;101792.13;5105800;28;19927;-70
2021/05/29 09:25:01;;;;;;;;;;;;;;;20.34;37.61;101795.72;5099506;28;19919;-70
2021/05/29 09:27:32;;;;;;;;;;;;;;;20.10;36.10;101781.75;5109111;28;19931;-69
2021/05/29 09:30:00;;;;;;;;;;;;;;;20.20;36.87;101786.06;5111347;28;19919;-69
2021/05/29 09:32:27;;;;;;;;;;;;;;;20.33;36.27;101784.88;5114542;28;19924;-70
2021/05/29 09:34:56;;;;;;;;;;;;;;;20.32;36.21;101772.03;5106470;28;19931;-68
2021/05/29 09:37:26;;;;;;;;;;;;;;;20.19;37.11;101781.66;5073117;28;19927;-69
2021/05/29 09:39:53;;;;;;;;;;;;;;;19.96;36.83;101784.09;5072694;28;19927;-68
2021/05/29 09:42:25;;;;;;;;;;;;;;;20.01;37.66;101789.44;5097482;28;20319;-68
2021/05/29 09:44:53;;;;;;;;;;;;;;;20.17;37.08;101784.81;5075884;28;20291;-69
2021/05/29 09:47:24;;;;;;;;;;;;;;;20.06;36.48;101792.00;5070366;28;20368;-68
2021/05/29 09:49:53;;;;;;;;;;;;;;;20.06;36.57;101797.59;5077753;28;19932;-69
2021/05/29 09:52:24;;;;;;;;;;;;;;;19.90;36.65;101802.25;5088989;28;19924;-69
2021/05/29 09:54:51;;;;;;;;;;;;;;;20.01;35.85;101800.63;5073699;28;20035;-66
2021/05/29 09:57:18;;;;;;;;;;;;;;;20.29;36.08;101795.13;5089577;28;19927;-69
2021/05/29 09:59:55;;;;;;;;;;;;;;;20.04;35.56;101805.50;5088012;28;19920;-67
2021/05/29 10:02:22;;;;;;;;;;;;;;;20.02;35.99;101791.88;5090693;28;19924;-67
2021/05/29 10:04:54;;;;;;;;;;;;;;;20.07;36.30;101796.41;5073012;28;20375;-69
2021/05/29 10:07:22;;;;;;;;;;;;;;;20.08;36.21;101803.66;5073003;28;19928;-67
2021/05/29 10:09:50;;;;;;;;;;;;;;;20.07;36.30;101802.00;5091058;28;19920;-68
2021/05/29 10:12:17;;;;;;;;;;;;;;;19.92;36.90;101800.75;5055879;28;19920;-70
2021/05/29 10:14:45;;;;;;;;;;;;;;;20.28;36.89;101802.72;5090776;28;19935;-69
2021/05/29 10:17:13;;;;;;;;;;;;;;;20.44;37.05;101797.19;5108174;28;19931;-70
2021/05/29 10:19:41;;;;;;;;;;;;;;;20.42;36.80;101799.53;5094078;28;19922;-69
2021/05/29 10:22:12;;;;;;;;;;;;;;;20.50;37.13;101795.78;5110108;28;19920;-66
2021/05/29 10:24:39;;;;;;;;;;;;;;;20.70;36.22;101803.19;5092708;28;20336;-68
2021/05/29 10:27:08;;;;;;;;;;;;;;;20.76;35.90;101798.97;5075784;28;19927;-70
2021/05/29 10:29:35;;;;;;;;;;;;;;;20.49;35.98;101811.75;5074925;28;19923;-71
2021/05/29 10:32:14;;;;;;;;;;;;;;;20.42;35.05;101805.94;5091256;28;19978;-71
2021/05/29 10:34:57;;;;;;;;;;;;;;;20.50;35.48;101802.22;5102340;28;19924;-69
2021/05/29 10:37:35;;;;;;;;;;;;;;;20.26;34.77;101812.66;5074692;28;19928;-69
2021/05/29 10:40:15;;;;;;;;;;;;;;;20.33;34.44;101798.88;5091211;28;19932;-69
2021/05/29 10:42:43;;;;;;;;;;;;;;;20.13;34.38;101809.84;5073668;28;19924;-72
2021/05/29 10:45:13;;;;;;;;;;;;;;;20.20;34.51;101803.66;5081196;28;19920;-69
2021/05/29 10:47:58;;;;;;;;;;;;;;;20.37;35.01;101800.59;5090988;28;19953;-70
2021/05/29 10:50:52;;;;;;;;;;;;;;;20.22;35.05;101806.13;5107682;28;19947;-70
2021/05/29 10:53:38;;;;;;;;;;;;;;;20.40;34.69;101799.09;5075056;28;19932;-70
2021/05/29 10:56:17;;;;;;;;;;;;;;;20.78;34.80;101796.63;5092743;27;19927;-73
2021/05/29 10:59:05;;;;;;;;;;;;;;;20.64;35.02;101793.41;5080129;28;19928;-72
2021/05/29 11:01:32;;;;;;;;;;;;;;;20.70;35.01;101801.19;5077953;28;19928;-70
2021/05/29 11:04:23;;;;;;;;;;;;;;;20.70;34.95;101795.59;5080330;28;20393;-73
2021/05/29 11:06:52;;;;;;;;;;;;;;;20.72;35.36;101798.88;5084860;28;19932;-73
2021/05/29 11:09:25;;;;;;;;;;;;;;;20.76;35.13;101798.97;5087389;28;19920;-70
2021/05/29 11:11:53;;;;;;;;;;;;;;;20.73;34.77;101797.69;5076152;28;20609;-70
2021/05/29 11:14:22;;;;;;;;;;;;;;;20.75;34.96;101797.31;5087659;28;19920;-75
2021/05/29 11:16:50;;;;;;;;;;;;;;;20.91;35.11;101796.22;5055691;28;20284;-72
2021/05/29 11:19:28;;;;;;;;;;;;;;;20.60;36.07;101795.28;5087272;28;19931;-72
2021/05/29 11:22:14;;;;;;;;;;;;;;;20.71;35.69;101796.44;5089184;28;19920;-68
2021/05/29 11:24:42;;;;;;;;;;;;;;;20.97;35.51;101791.19;5086520;28;20378;-69
2021/05/29 11:27:19;;;;;;;;;;;;;;;20.95;35.46;101799.94;5070734;28;20394;-71
2021/05/29 11:30:01;;;;;;;;;;;;;;;20.83;35.33;101796.38;5072814;28;19927;-69
2021/05/29 11:35:26;;;;;;;;;;;;;;;20.82;36.08;101803.13;5091480;28;20134;-68
2021/05/29 11:38:18;;;;;;;;;;;;;;;21.17;35.87;101795.75;5071389;28;19927;-69
2021/05/29 11:40:47;;;;;;;;;;;;;;;21.23;35.45;101797.16;5089017;28;19931;-68
2021/05/29 11:43:15;;;;;;;;;;;;;;;20.95;35.15;101796.31;5090550;28;19928;-68
2021/05/29 11:45:42;;;;;;;;;;;;;;;20.88;35.25;101793.31;5083637;28;20291;-70
2021/05/29 11:48:11;;;;;;;;;;;;;;;20.83;34.95;101808.41;5065038;28;19920;-69
2021/05/29 11:51:08;;;;;;;;;;;;;;;20.76;34.99;101799.78;5082161;28;19927;-70
2021/05/29 11:53:30;;;;;;;;;;;;;;;20.90;34.90;101793.78;5086826;28;19928;-72
2021/05/29 11:56:00;;;;;;;;;;;;;;;20.95;34.71;101791.53;5071774;28;19993;-69
2021/05/29 11:58:39;;;;;;;;;;;;;;;20.76;34.79;101791.41;5070335;28;20298;-72
2021/05/29 12:01:06;;;;;;;;;;;;;;;20.75;35.07;101789.75;5069030;28;19935;-69
2021/05/29 12:03:41;;;;;;;;;;;;;;;20.77;34.85;101787.41;5089304;28;19924;-71
2021/05/29 12:06:08;;;;;;;;;;;;;;;20.82;35.34;101791.94;5071897;28;19919;-69
2021/05/29 12:08:55;;;;;;;;;;;;;;;21.19;35.08;101782.22;5085602;28;19920;-70
2021/05/29 12:11:23;;;;;;;;;;;;;;;21.42;34.77;101788.84;5082703;28;19924;-72
2021/05/29 12:14:00;;;;;;;;;;;;;;;21.32;34.94;101775.38;5074559;28;19927;-70
2021/05/29 12:16:29;;;;;;;;;;;;;;;21.50;34.94;101778.59;5073389;28;20712;-68
2021/05/29 12:18:58;;;;;;;;;;;;;;;21.35;35.29;101771.00;5091517;28;20006;-68
2021/05/29 12:21:39;;;;;;;;;;;;;;;21.56;34.98;101775.19;5091836;28;19935;-69
2021/05/29 12:24:06;;;;;;;;;;;;;;;21.80;34.34;101780.63;5056457;28;20232;-68
2021/05/29 12:26:36;;;;;;;;;;;;;;;21.64;33.68;101784.59;5072976;28;20241;-68
2021/05/29 12:29:03;;;;;;;;;;;;;;;21.53;34.32;101783.53;5072885;28;19946;-69
2021/05/29 12:31:43;;;;;;;;;;;;;;;21.93;33.97;101784.16;5091056;28;20311;-69
2021/05/29 12:34:11;;;;;;;;;;;;;;;21.94;33.50;101780.16;5086386;28;20291;-69
2021/05/29 12:36:53;;;;;;;;;;;;;;;22.08;33.38;101775.72;5088902;28;19927;-69
2021/05/29 12:39:21;;;;;;;;;;;;;;;21.77;34.33;101767.31;5085038;28;19931;-69
2021/05/29 12:41:48;;;;;;;;;;;;;;;21.78;33.58;101780.19;5089940;28;20067;-68
2021/05/29 12:44:15;;;;;;;;;;;;;;;21.57;33.43;101779.63;5071728;28;20303;-69
2021/05/29 12:46:43;;;;;;;;;;;;;;;21.58;33.87;101781.25;5082459;28;19930;-72
2021/05/29 12:49:13;;;;;;;;;;;;;;;21.78;33.52;101782.16;5085726;28;20392;-70
2021/05/29 12:51:44;;;;;;;;;;;;;;;21.79;33.22;101772.59;5068766;28;19919;-71
2021/05/29 12:54:12;;;;;;;;;;;;;;;21.68;33.61;101775.09;5087005;28;19920;-69
2021/05/29 12:56:49;;;;;;;;;;;;;;;21.79;33.02;101767.78;5085885;28;19919;-70
2021/05/29 12:59:17;;;;;;;;;;;;;;;22.07;33.43;101774.06;5080868;28;19927;-66
2021/05/29 13:02:09;;;;;;;;;;;;;;;22.33;32.42;101767.84;5071839;28;20325;-68